Time;durP1;ratioP1;P1;durP2;ratioP2;P2;SDS_P1;SDS_P2;PMS_P1;PMS_P2;Temp;Humidity;BMP_temperature;BMP_pressure;BME280_temperature;BME280_humidity;BME280_pressure;Samples;Min_cycle;Max_cycle;Signal;HPM_P1;HPM_P2
2022/05/12 00:02:10;;;;;;;3.63;3.33;;;19.90;99.90;;;;;;8327612;28;20210;-79
2022/05/12 00:06:11;;;;;;;5.40;4.90;;;20.00;99.90;;;;;;8323684;28;20185;-79
2022/05/12 00:10:16;;;;;;;5.50;4.10;;;20.10;99.90;;;;;;8324952;28;20244;-79
2022/05/12 00:14:17;;;;;;;6.73;3.63;;;20.00;99.90;;;;;;8324680;28;20178;-78
2022/05/12 00:18:18;;;;;;;4.63;4.03;;;20.10;99.90;;;;;;8321075;28;20233;-79
2022/05/12 00:22:18;;;;;;;5.93;3.00;;;20.10;99.90;;;;;;8328817;28;20182;-79
2022/05/12 00:26:19;;;;;;;4.40;3.50;;;20.20;99.90;;;;;;8324504;28;20202;-80
2022/05/12 00:30:23;;;;;;;5.80;3.67;;;20.20;99.90;;;;;;8324839;28;20213;-80
2022/05/12 00:34:24;;;;;;;5.03;3.60;;;20.20;99.90;;;;;;8304383;28;20191;-80
2022/05/12 00:38:25;;;;;;;4.53;4.10;;;20.10;99.90;;;;;;8324958;28;20236;-78
2022/05/12 00:42:26;;;;;;;8.20;5.63;;;20.10;99.90;;;;;;8325464;28;20297;-79
2022/05/12 00:46:31;;;;;;;8.33;4.40;;;20.10;99.90;;;;;;8318794;28;20210;-78
2022/05/12 00:50:43;;;;;;;9.43;6.70;;;20.00;99.90;;;;;;8323155;28;20210;-79
2022/05/12 00:55:16;;;;;;;6.53;3.63;;;20.10;99.90;;;;;;8340500;28;20364;-78
2022/05/12 00:59:24;;;;;;;8.70;3.80;;;20.10;99.90;;;;;;8315912;28;20193;-78
2022/05/12 01:03:28;;;;;;;5.37;3.10;;;20.10;99.90;;;;;;8313714;28;20224;-79
2022/05/12 01:07:29;;;;;;;5.10;4.50;;;20.10;99.90;;;;;;8319650;28;20187;-79
2022/05/12 01:11:30;;;;;;;3.57;3.03;;;20.20;99.90;;;;;;8322209;28;20214;-79
2022/05/12 01:15:31;;;;;;;4.07;3.00;;;20.20;99.90;;;;;;8321304;28;20628;-79
2022/05/12 01:19:35;;;;;;;3.47;2.93;;;20.20;99.90;;;;;;8333831;28;20257;-78
2022/05/12 01:23:39;;;;;;;4.93;2.80;;;20.20;99.90;;;;;;8305161;28;20194;-79
2022/05/12 01:27:42;;;;;;;3.47;2.90;;;20.20;99.90;;;;;;8328577;28;20253;-79
2022/05/12 01:31:43;;;;;;;3.67;2.80;;;20.10;99.90;;;;;;8323136;28;20217;-79
2022/05/12 01:35:44;;;;;;;3.43;2.57;;;20.10;99.90;;;;;;8325199;28;20193;-79
2022/05/12 01:39:45;;;;;;;4.43;3.17;;;20.00;99.90;;;;;;8324280;28;20206;-79
2022/05/12 01:43:46;;;;;;;3.20;2.90;;;19.90;99.90;;;;;;8321234;28;20188;-79
2022/05/12 01:47:50;;;;;;;3.43;3.13;;;19.70;99.90;;;;;;8340676;28;20265;-79
2022/05/12 01:51:55;;;;;;;3.00;2.80;;;19.60;99.90;;;;;;8327770;28;20224;-79
2022/05/12 01:55:57;;;;;;;4.80;2.97;;;19.60;99.90;;;;;;8330918;28;20190;-79
2022/05/12 01:59:58;;;;;;;4.17;3.27;;;19.50;99.90;;;;;;8319347;28;20178;-80
2022/05/12 02:03:59;;;;;;;3.73;3.43;;;19.40;99.90;;;;;;8326572;28;20189;-78
2022/05/12 02:08:00;;;;;;;5.17;3.03;;;19.20;99.90;;;;;;8324933;28;20208;-78
2022/05/12 02:12:01;;;;;;;5.10;2.90;;;19.20;99.90;;;;;;8342414;28;20245;-80
2022/05/12 02:16:02;;;;;;;4.03;2.70;;;19.10;99.90;;;;;;8323180;28;20213;-79
2022/05/12 02:20:04;;;;;;;4.97;2.90;;;18.90;99.90;;;;;;8325817;28;20273;-79
2022/05/12 02:24:07;;;;;;;5.00;3.03;;;18.90;99.90;;;;;;8326495;28;20182;-79
2022/05/12 02:28:08;;;;;;;4.33;2.93;;;18.70;99.90;;;;;;8349158;28;20196;-79
2022/05/12 02:32:09;;;;;;;4.67;3.07;;;18.70;99.90;;;;;;8326172;28;20221;-78
2022/05/12 02:36:10;;;;;;;3.47;2.60;;;18.60;99.90;;;;;;8323722;28;20190;-80
2022/05/12 02:40:14;;;;;;;4.10;3.07;;;18.50;99.90;;;;;;8325619;28;20574;-79
2022/05/12 02:44:15;;;;;;;3.80;3.10;;;18.50;99.90;;;;;;8324683;28;20190;-80
2022/05/12 02:48:18;;;;;;;4.00;2.80;;;18.50;99.90;;;;;;8343330;28;20266;-79
2022/05/12 02:52:19;;;;;;;6.60;3.27;;;18.60;99.90;;;;;;8329585;28;20233;-80
2022/05/12 02:56:19;;;;;;;3.07;2.50;;;18.50;99.90;;;;;;8332883;28;20213;-79
2022/05/12 03:00:20;;;;;;;4.13;2.83;;;18.50;99.90;;;;;;8348977;28;20191;-80
2022/05/12 03:04:21;;;;;;;5.43;3.10;;;18.50;99.90;;;;;;8333117;28;20717;-80
2022/05/12 03:08:23;;;;;;;4.60;2.80;;;18.50;99.90;;;;;;8327550;28;20190;-78
2022/05/12 03:12:23;;;;;;;6.70;2.87;;;18.50;99.90;;;;;;8337579;28;20268;-80
2022/05/12 03:16:25;;;;;;;5.43;3.00;;;18.50;99.90;;;;;;8336109;28;20197;-79
2022/05/12 03:20:28;;;;;;;4.17;2.90;;;18.50;99.90;;;;;;8337113;28;20272;-79
2022/05/12 03:24:28;;;;;;;5.70;2.97;;;18.50;99.90;;;;;;8346650;28;20212;-78
2022/05/12 03:28:29;;;;;;;4.87;2.90;;;18.60;99.90;;;;;;8329230;28;20206;-81
2022/05/12 03:32:30;;;;;;;3.40;3.10;;;18.60;99.90;;;;;;8333475;28;20214;-79
2022/05/12 03:36:35;;;;;;;2.67;2.47;;;18.60;99.90;;;;;;8322891;28;20228;-81
2022/05/12 03:40:36;;;;;;;3.73;2.80;;;18.80;99.90;;;;;;8326623;28;20202;-77
2022/05/12 03:44:46;;;;;;;4.27;3.07;;;18.90;99.90;;;;;;8336857;28;20213;-77
2022/05/12 03:48:47;;;;;;;2.93;2.63;;;19.20;99.90;;;;;;8319299;28;20222;-78
2022/05/12 03:52:49;;;;;;;7.53;3.20;;;19.40;99.90;;;;;;8319725;28;20186;-79
2022/05/12 03:56:50;;;;;;;3.60;2.77;;;19.80;99.90;;;;;;8324490;28;20181;-76
2022/05/12 04:00:53;;;;;;;3.83;2.67;;;20.70;99.90;;;;;;8332278;28;20186;-76
2022/05/12 04:04:54;;;;;;;5.93;2.83;;;21.20;99.90;;;;;;8342840;28;20182;-79
2022/05/12 04:08:54;;;;;;;5.00;2.93;;;20.90;99.90;;;;;;8337787;28;20212;-76
2022/05/12 04:12:55;;;;;;;5.80;3.00;;;20.70;99.90;;;;;;8331088;28;20189;-79
2022/05/12 04:16:56;;;;;;;4.83;2.90;;;20.80;99.90;;;;;;8321319;28;20299;-76
2022/05/12 04:20:57;;;;;;;3.40;2.60;;;21.10;99.90;;;;;;8322809;28;20198;-76
2022/05/12 04:24:58;;;;;;;3.57;2.57;;;20.90;99.90;;;;;;8324611;28;20182;-77
2022/05/12 04:28:59;;;;;;;4.77;2.67;;;20.60;99.90;;;;;;8328333;28;20217;-79
2022/05/12 04:35:09;;;;;;;3.17;2.70;;;20.40;99.90;;;;;;8323616;28;20181;-75
2022/05/12 04:37:31;;;;;;;4.17;2.70;;;20.60;99.90;;;;;;8347002;28;20178;-80
2022/05/12 04:41:32;;;;;;;3.20;2.40;;;20.60;99.90;;;;;;8333843;28;20209;-79
2022/05/12 04:45:34;;;;;;;3.10;2.50;;;20.40;99.90;;;;;;8322910;28;20244;-80
2022/05/12 04:49:35;;;;;;;2.37;1.97;;;20.90;99.90;;;;;;8336370;28;20222;-76
2022/05/12 04:53:37;;;;;;;2.70;2.40;;;21.50;99.90;;;;;;8329167;28;20194;-76
2022/05/12 04:57:38;;;;;;;4.70;2.13;;;21.80;67.20;;;;;;8318998;28;20190;-75
2022/05/12 05:01:39;;;;;;;6.60;2.20;;;22.10;50.60;;;;;;8328057;28;20241;-78
2022/05/12 05:05:40;;;;;;;3.83;2.13;;;22.00;29.80;;;;;;8322772;28;20191;-77
2022/05/12 05:09:41;;;;;;;3.33;2.00;;;21.80;37.10;;;;;;8336331;28;20215;-76
2022/05/12 05:13:42;;;;;;;4.47;2.10;;;21.70;58.40;;;;;;8321282;28;20181;-80
2022/05/12 05:17:44;;;;;;;2.87;2.10;;;21.60;76.80;;;;;;8324810;28;20186;-81
2022/05/12 05:21:45;;;;;;;3.23;2.00;;;21.60;55.30;;;;;;8328657;28;20187;-78
2022/05/12 05:25:46;;;;;;;5.07;1.93;;;21.60;50.20;;;;;;8322711;28;20189;-76
2022/05/12 05:29:47;;;;;;;9.53;2.30;;;21.70;55.10;;;;;;8341498;28;20332;-76
2022/05/12 05:33:49;;;;;;;3.10;1.83;;;21.80;27.10;;;;;;8320276;28;20200;-80
2022/05/12 05:37:52;;;;;;;5.37;2.00;;;21.90;38.80;;;;;;8327880;28;20206;-77
2022/05/12 05:42:01;;;;;;;3.40;1.67;;;22.00;41.00;;;;;;8331202;28;20201;-81
2022/05/12 05:46:02;;;;;;;6.43;1.67;;;22.00;20.80;;;;;;8319956;28;20217;-77
2022/05/12 05:50:07;;;;;;;8.50;2.50;;;21.90;4.30;;;;;;8334681;28;20217;-76
2022/05/12 05:54:08;;;;;;;6.90;2.20;;;21.70;1.30;;;;;;8330135;28;20205;-78
2022/05/12 05:58:09;;;;;;;14.83;2.50;;;21.60;5.60;;;;;;8321007;28;20178;-76
2022/05/12 06:02:10;;;;;;;4.40;2.70;;;21.60;26.40;;;;;;8322709;28;20192;-76
2022/05/12 06:06:11;;;;;;;6.93;3.00;;;21.40;62.90;;;;;;8346987;28;20185;-79
2022/05/12 06:10:13;;;;;;;4.43;3.30;;;21.20;99.90;;;;;;8344647;28;20202;-80
2022/05/12 06:14:14;;;;;;;5.77;3.80;;;20.60;99.90;;;;;;8329089;28;20182;-75
2022/05/12 06:18:17;;;;;;;6.60;3.77;;;20.30;99.90;;;;;;8317112;28;20186;-80
2022/05/12 06:22:21;;;;;;;9.10;3.60;;;20.00;99.90;;;;;;8335708;28;20189;-81
2022/05/12 06:26:24;;;;;;;7.63;3.93;;;20.10;99.90;;;;;;8331026;28;20251;-78
2022/05/12 06:30:27;;;;;;;9.77;3.80;;;19.90;99.90;;;;;;8347542;28;20206;-76
2022/05/12 06:34:27;;;;;;;8.13;3.57;;;20.00;99.90;;;;;;8325037;28;20189;-81
2022/05/12 06:38:28;;;;;;;4.17;3.03;;;20.10;99.90;;;;;;8346596;28;20200;-77
2022/05/12 06:42:31;;;;;;;5.43;2.87;;;20.10;99.90;;;;;;8332410;28;20267;-78
2022/05/12 06:46:32;;;;;;;4.77;2.93;;;20.20;99.90;;;;;;8329712;28;20190;-77
2022/05/12 06:50:33;;;;;;;6.97;2.60;;;20.20;99.90;;;;;;8345183;28;20210;-77
2022/05/12 06:54:36;;;;;;;3.07;2.27;;;20.30;99.90;;;;;;8350747;28;20231;-81
2022/05/12 06:58:37;;;;;;;6.07;2.10;;;20.40;99.90;;;;;;8325633;28;20182;-77
2022/05/12 07:02:38;;;;;;;3.17;2.13;;;20.80;99.90;;;;;;8333184;28;20199;-75
2022/05/12 07:06:39;;;;;;;6.77;2.30;;;20.80;99.90;;;;;;8337395;28;20274;-77
2022/05/12 07:10:40;;;;;;;5.43;1.90;;;20.70;99.90;;;;;;8330204;28;20206;-78
2022/05/12 07:14:41;;;;;;;4.43;1.67;;;20.40;99.90;;;;;;8338400;28;20192;-78
2022/05/12 07:18:42;;;;;;;2.77;1.63;;;20.60;99.90;;;;;;8342258;28;20202;-80
2022/05/12 07:27:03;;;;;;;4.67;1.83;;;20.90;99.90;;;;;;8341092;28;20275;-80
2022/05/12 07:31:06;;;;;;;3.90;1.50;;;20.70;99.90;;;;;;8342105;28;20220;-76
2022/05/12 07:35:11;;;;;;;16.70;1.60;;;20.60;99.90;;;;;;8331045;28;20173;-81
2022/05/12 07:39:12;;;;;;;5.00;1.47;;;20.40;99.90;;;;;;8326980;28;20211;-80
2022/05/12 07:43:13;;;;;;;3.50;1.10;;;20.60;99.90;;;;;;8324180;28;20229;-80
2022/05/12 07:47:14;;;;;;;5.47;1.50;;;20.50;99.90;;;;;;8329185;28;20277;-80
2022/05/12 07:51:17;;;;;;;4.27;1.00;;;20.20;99.90;;;;;;8325206;28;20412;-80
2022/05/12 07:55:18;;;;;;;6.20;1.10;;;20.20;99.90;;;;;;8327722;28;20174;-77
2022/05/12 07:59:19;;;;;;;4.37;1.43;;;20.00;99.90;;;;;;8329696;28;20197;-77
2022/05/12 08:03:21;;;;;;;6.70;1.27;;;19.90;99.90;;;;;;8327553;28;20232;-78
2022/05/12 08:07:21;;;;;;;5.10;1.10;;;20.00;99.90;;;;;;8313251;28;20285;-77
2022/05/12 08:11:24;;;;;;;6.07;0.90;;;20.20;99.90;;;;;;8331126;28;20221;-78
2022/05/12 08:15:25;;;;;;;6.80;1.60;;;20.40;99.90;;;;;;8324466;28;20276;-77
2022/05/12 08:19:26;;;;;;;4.90;1.07;;;20.80;98.90;;;;;;8326180;28;20276;-83
2022/05/12 08:23:27;;;;;;;4.57;0.97;;;20.90;93.60;;;;;;8333760;28;20185;-77
2022/05/12 08:27:28;;;;;;;4.53;0.90;;;21.10;58.50;;;;;;8331627;28;20263;-76
2022/05/12 08:31:30;;;;;;;4.23;1.03;;;20.80;27.70;;;;;;8343120;28;20245;-78
2022/05/12 08:35:31;;;;;;;4.50;0.90;;;20.40;73.40;;;;;;8335763;28;20190;-80
2022/05/12 08:39:32;;;;;;;3.80;1.27;;;20.30;84.70;;;;;;8319083;28;20217;-76
2022/05/12 08:43:45;;;;;;;4.43;0.80;;;20.50;95.80;;;;;;8321861;28;20194;-79
2022/05/12 08:47:49;;;;;;;7.63;0.90;;;20.80;84.00;;;;;;8340485;28;20195;-77
2022/05/12 08:51:54;;;;;;;8.27;1.43;;;21.10;73.00;;;;;;8317494;28;20210;-80
2022/05/12 08:55:57;;;;;;;3.50;0.90;;;20.70;9.50;;;;;;8342125;28;20187;-80
2022/05/12 09:00:00;;;;;;;7.50;0.90;;;20.30;40.80;;;;;;8345650;28;20185;-81
2022/05/12 09:04:19;;;;;;;9.27;1.43;;;20.50;98.40;;;;;;8341055;28;20291;-80
2022/05/12 09:08:30;;;;;;;5.90;0.90;;;20.00;13.00;;;;;;8317514;28;20250;-80
2022/05/12 09:12:38;;;;;;;4.90;1.13;;;19.90;71.90;;;;;;8335783;28;20210;-76
2022/05/12 09:16:38;;;;;;;8.77;1.43;;;19.90;6.50;;;;;;8322776;28;20186;-78
2022/05/12 09:20:39;;;;;;;14.90;1.43;;;20.10;13.00;;;;;;8321454;28;20239;-77
2022/05/12 09:24:41;;;;;;;8.00;0.83;;;20.20;1.00;;;;;;8327636;28;20194;-76
2022/05/12 09:28:42;;;;;;;9.17;1.30;;;20.40;1.00;;;;;;8331026;28;20210;-78
2022/05/12 09:32:43;;;;;;;8.30;1.47;;;20.60;1.00;;;;;;8319652;28;20218;-80
2022/05/12 09:36:44;;;;;;;6.33;1.13;;;20.30;1.00;;;;;;8327133;28;20186;-77
2022/05/12 09:40:45;;;;;;;7.60;1.10;;;20.10;1.00;;;;;;8318488;28;20216;-80
2022/05/12 09:44:56;;;;;;;11.97;1.07;;;20.20;1.00;;;;;;8320950;28;20598;-76
2022/05/12 09:49:21;;;;;;;7.73;1.10;;;20.20;1.00;;;;;;8336200;28;20257;-77
2022/05/12 09:53:30;;;;;;;8.33;1.57;;;20.40;1.00;;;;;;8340734;28;20287;-77
2022/05/12 09:57:31;;;;;;;8.97;0.80;;;20.20;1.00;;;;;;8327524;28;20365;-76
2022/05/12 10:01:33;;;;;;;12.07;1.43;;;20.20;1.00;;;;;;8341657;28;20229;-76
2022/05/12 10:09:53;;;;;;;12.07;1.20;;;20.10;1.00;;;;;;8347036;28;20229;-76
2022/05/12 10:14:00;;;;;;;8.77;1.00;;;20.00;1.00;;;;;;8327735;28;20197;-76
2022/05/12 10:18:33;;;;;;;7.03;1.03;;;19.90;1.00;;;;;;8316713;28;20276;-77
2022/05/12 10:22:55;;;;;;;9.00;0.93;;;19.90;1.00;;;;;;8323868;28;20256;-76
2022/05/12 10:27:05;;;;;;;15.70;0.87;;;20.30;1.00;;;;;;8342284;28;20254;-80
2022/05/12 10:31:38;;;;;;;7.27;0.77;;;20.50;1.00;;;;;;8322733;28;20297;-76
2022/05/12 10:36:00;;;;;;;5.97;0.80;;;20.60;1.00;;;;;;8290798;28;20204;-76
2022/05/12 10:40:23;;;;;;;7.67;0.80;;;20.50;1.00;;;;;;8324138;28;20213;-77
2022/05/12 10:44:39;;;;;;;5.03;0.60;;;20.80;1.00;;;;;;8312885;28;20280;-77
2022/05/12 10:48:45;;;;;;;8.53;0.60;;;21.10;1.00;;;;;;8335915;28;20260;-76
2022/05/12 10:53:07;;;;;;;9.57;1.00;;;21.20;1.00;;;;;;8338871;28;20206;-77
2022/05/12 10:57:29;;;;;;;4.07;0.70;;;21.40;1.00;;;;;;8326750;28;20188;-76
2022/05/12 11:01:38;;;;;;;6.90;0.70;;;21.50;1.00;;;;;;8322809;28;20189;-77
2022/05/12 11:05:45;;;;;;;6.03;0.73;;;21.10;1.00;;;;;;8326503;28;20225;-76
2022/05/12 11:10:06;;;;;;;4.27;0.87;;;20.30;1.00;;;;;;8327558;28;20264;-77
2022/05/12 11:14:22;;;;;;;6.13;0.63;;;20.30;1.00;;;;;;8341220;28;20592;-76
2022/05/12 11:19:02;;;;;;;13.63;0.87;;;20.10;1.00;;;;;;8327674;28;20277;-81
2022/05/12 11:23:32;;;;;;;2.77;0.40;;;20.40;1.00;;;;;;8326655;28;20181;-76
2022/05/12 11:32:33;;;;;;;2.20;0.33;;;20.40;1.00;;;;;;8337723;28;20328;-80
2022/05/12 11:36:57;;;;;;;5.20;0.43;;;20.40;1.00;;;;;;8348938;28;20181;-77
2022/05/12 11:40:57;;;;;;;4.03;0.60;;;20.40;1.00;;;;;;8337987;28;20228;-81
2022/05/12 11:45:32;;;;;;;4.03;0.53;;;20.40;1.00;;;;;;8327108;28;20194;-77
2022/05/12 11:50:08;;;;;;;8.87;0.97;;;20.60;1.00;;;;;;8332432;28;20202;-76
2022/05/12 11:54:34;;;;;;;7.97;0.90;;;20.70;1.00;;;;;;8305931;28;20505;-76
2022/05/12 11:58:40;;;;;;;1.43;0.50;;;20.40;1.00;;;;;;8341217;28;20240;-81
2022/05/12 12:02:44;;;;;;;3.50;0.50;;;20.50;1.00;;;;;;8341652;28;20182;-76
2022/05/12 12:06:53;;;;;;;4.47;0.70;;;20.70;1.00;;;;;;8353466;28;20189;-77
2022/05/12 12:11:14;;;;;;;1.60;0.90;;;20.70;1.00;;;;;;8333989;28;20246;-77
2022/05/12 12:15:24;;;;;;;9.83;1.00;;;20.50;1.00;;;;;;8342405;28;20187;-80
2022/05/12 12:19:49;;;;;;;3.70;0.60;;;20.60;1.00;;;;;;8342350;28;20190;-76
2022/05/12 12:24:19;;;;;;;4.77;0.70;;;20.70;1.00;;;;;;8306516;28;20194;-77
2022/05/12 12:28:57;;;;;;;4.77;0.50;;;20.60;1.00;;;;;;8306647;28;20210;-76
2022/05/12 12:33:19;;;;;;;5.37;0.73;;;20.60;1.00;;;;;;8338354;28;20288;-77
2022/05/12 12:37:40;;;;;;;1.03;0.30;;;20.80;1.00;;;;;;8340560;28;20347;-81
2022/05/12 12:41:44;;;;;;;2.73;0.30;;;21.20;1.00;;;;;;8327321;28;20240;-77
2022/05/12 12:45:51;;;;;;;1.50;0.30;;;20.90;1.00;;;;;;8346615;28;20200;-77
2022/05/12 12:50:45;;;;;;;1.47;0.30;;;20.90;1.00;;;;;;8321509;28;20226;-77
2022/05/12 12:59:22;;;;;;;0.80;0.40;;;21.20;1.00;;;;;;8325016;28;20197;-80
2022/05/12 13:03:31;;;;;;;1.67;0.67;;;21.50;1.00;;;;;;8325049;28;20201;-81
2022/05/12 13:07:34;;;;;;;0.93;0.30;;;21.20;1.00;;;;;;8327535;28;20201;-78
2022/05/12 13:11:38;;;;;;;2.60;0.30;;;21.20;1.00;;;;;;8342651;28;20225;-80
2022/05/12 13:15:48;;;;;;;3.70;0.40;;;21.20;1.00;;;;;;8337941;28;20225;-78
2022/05/12 13:19:49;;;;;;;1.33;0.40;;;21.40;1.00;;;;;;8324746;28;20241;-76
2022/05/12 13:24:35;;;;;;;3.60;0.30;;;21.10;1.00;;;;;;8333611;28;20190;-77
2022/05/12 13:28:37;;;;;;;3.00;0.33;;;20.90;1.00;;;;;;8270287;28;20228;-77
2022/05/12 13:32:45;;;;;;;3.37;0.30;;;20.80;1.00;;;;;;8326055;28;20281;-81
2022/05/12 13:36:53;;;;;;;1.40;0.40;;;21.20;1.00;;;;;;8310395;28;20190;-76
2022/05/12 13:40:54;;;;;;;4.87;0.40;;;21.20;1.00;;;;;;8326223;28;20290;-81
2022/05/12 13:45:01;;;;;;;2.03;0.20;;;21.10;1.00;;;;;;8329250;28;20194;-80
2022/05/12 13:49:10;;;;;;;4.07;0.33;;;21.00;1.00;;;;;;8318123;28;20198;-77
2022/05/12 13:53:11;;;;;;;1.67;0.20;;;21.00;1.00;;;;;;8324923;28;20250;-81
2022/05/12 13:57:29;;;;;;;0.83;0.40;;;21.10;1.00;;;;;;8310216;28;20208;-80
2022/05/12 14:01:33;;;;;;;3.10;0.40;;;21.60;1.00;;;;;;8325779;28;20214;-80
2022/05/12 14:05:33;;;;;;;1.83;0.50;;;21.60;1.00;;;;;;8326295;28;20252;-81
2022/05/12 14:09:49;;;;;;;2.97;0.50;;;21.50;1.00;;;;;;8324281;28;20235;-76
2022/05/12 14:22:29;;;;;;;2.87;0.30;;;21.40;1.00;;;;;;8340499;28;20476;-81
2022/05/12 14:26:30;;;;;;;2.97;0.57;;;21.40;1.00;;;;;;8322646;28;20186;-80
2022/05/12 14:30:31;;;;;;;3.33;0.50;;;21.20;1.00;;;;;;8323935;28;20205;-76
2022/05/12 14:34:32;;;;;;;2.20;0.37;;;21.20;1.00;;;;;;8336034;28;20208;-75
2022/05/12 14:38:34;;;;;;;0.67;0.30;;;21.30;1.00;;;;;;8328984;28;20203;-75
2022/05/12 14:42:35;;;;;;;2.57;0.37;;;21.30;1.00;;;;;;8324222;28;20624;-76
2022/05/12 14:46:45;;;;;;;1.40;0.40;;;21.40;1.00;;;;;;8325301;28;20200;-76
2022/05/12 14:50:50;;;;;;;4.80;0.67;;;21.50;1.00;;;;;;8333686;28;20211;-77
2022/05/12 14:54:52;;;;;;;1.87;0.50;;;21.50;1.00;;;;;;8337393;28;20193;-80
2022/05/12 14:58:53;;;;;;;1.07;0.50;;;21.30;1.00;;;;;;8346925;28;20229;-76
2022/05/12 15:02:54;;;;;;;0.33;0.20;;;21.20;1.00;;;;;;8330826;28;20185;-77
2022/05/12 15:06:56;;;;;;;1.07;0.33;;;21.30;1.00;;;;;;8336187;28;20190;-80
2022/05/12 15:10:56;;;;;;;0.40;0.20;;;21.50;1.00;;;;;;8336444;28;20247;-78
2022/05/12 15:14:57;;;;;;;1.00;0.40;;;21.60;1.00;;;;;;8326890;28;20706;-77
2022/05/12 15:18:58;;;;;;;2.70;0.50;;;21.50;1.00;;;;;;8331022;28;20186;-80
2022/05/12 15:23:01;;;;;;;2.33;0.40;;;21.40;1.00;;;;;;8328468;28;20182;-80
2022/05/12 15:27:06;;;;;;;1.37;0.50;;;21.20;1.00;;;;;;8332994;28;20202;-81
2022/05/12 15:31:07;;;;;;;0.83;0.37;;;21.20;1.00;;;;;;8328339;28;20323;-80
2022/05/12 15:35:10;;;;;;;1.43;0.43;;;21.30;1.00;;;;;;8316399;28;20188;-76
2022/05/12 15:39:16;;;;;;;3.57;0.60;;;21.30;1.00;;;;;;8328004;28;20208;-79
2022/05/12 15:43:17;;;;;;;2.30;0.33;;;21.30;1.00;;;;;;8332191;28;20210;-80
2022/05/12 15:47:29;;;;;;;2.73;0.60;;;21.20;1.00;;;;;;8323966;28;20189;-77
2022/05/12 15:51:30;;;;;;;1.30;0.57;;;21.30;1.00;;;;;;8345086;28;20289;-76
2022/05/12 15:55:31;;;;;;;0.67;0.30;;;21.40;1.00;;;;;;8345312;28;20182;-76
2022/05/12 15:59:39;;;;;;;2.20;0.50;;;21.30;1.00;;;;;;8329605;28;20250;-78
2022/05/12 16:03:40;;;;;;;1.67;0.53;;;21.10;1.00;;;;;;8341896;28;20210;-78
2022/05/12 16:07:41;;;;;;;3.17;0.60;;;21.10;1.00;;;;;;8328373;28;20196;-77
2022/05/12 16:15:54;;;;;;;2.03;1.10;;;21.00;1.00;;;;;;8338370;28;20221;-77
2022/05/12 16:19:56;;;;;;;1.20;0.50;;;20.90;1.00;;;;;;8328270;28;20207;-78
2022/05/12 16:23:57;;;;;;;3.53;0.80;;;20.90;1.00;;;;;;8317831;28;20204;-80
2022/05/12 16:28:07;;;;;;;1.60;0.50;;;20.80;1.00;;;;;;8326983;28;20216;-81
2022/05/12 16:32:15;;;;;;;4.43;0.60;;;20.90;1.00;;;;;;8330251;28;20310;-81
2022/05/12 16:36:19;;;;;;;1.03;0.40;;;20.90;1.00;;;;;;8341813;28;20178;-78
2022/05/12 16:40:21;;;;;;;1.90;0.50;;;20.80;1.00;;;;;;8332666;28;20306;-80
2022/05/12 16:44:23;;;;;;;3.57;0.40;;;20.90;1.00;;;;;;8323700;28;20201;-80
2022/05/12 16:48:25;;;;;;;1.97;0.60;;;20.80;1.00;;;;;;8343434;28;20208;-77
2022/05/12 16:52:26;;;;;;;3.23;0.53;;;20.70;1.00;;;;;;8333250;28;20283;-76
2022/05/12 16:56:27;;;;;;;1.70;0.47;;;20.70;1.00;;;;;;8327888;28;20201;-77
2022/05/12 17:00:28;;;;;;;1.83;0.53;;;20.40;1.00;;;;;;8332956;28;20277;-75
2022/05/12 17:04:29;;;;;;;3.63;0.50;;;20.20;1.00;;;;;;8322960;28;20320;-80
2022/05/12 17:08:34;;;;;;;1.30;0.93;;;20.10;1.00;;;;;;8330834;28;20190;-75
2022/05/12 17:12:35;;;;;;;6.23;3.53;;;20.00;1.00;;;;;;8329208;28;20250;-76
2022/05/12 17:16:39;;;;;;;13.13;6.87;;;19.90;1.00;;;;;;8325982;28;20194;-78
2022/05/12 17:20:40;;;;;;;5.50;3.30;;;19.90;1.00;;;;;;8320273;28;20181;-78
2022/05/12 17:24:41;;;;;;;1.73;0.90;;;20.00;1.00;;;;;;8343195;28;20289;-76
2022/05/12 17:28:43;;;;;;;1.20;0.50;;;20.20;1.00;;;;;;8323590;28;20297;-76
2022/05/12 17:32:44;;;;;;;1.70;0.97;;;20.10;1.00;;;;;;8325731;28;20264;-77
2022/05/12 17:36:44;;;;;;;3.70;0.60;;;20.10;1.00;;;;;;8329275;28;20186;-76
2022/05/12 17:40:54;;;;;;;1.73;0.60;;;20.10;1.00;;;;;;8320842;28;20317;-77
2022/05/12 17:44:55;;;;;;;1.20;0.83;;;20.10;1.00;;;;;;8321546;28;20410;-81
2022/05/12 17:48:55;;;;;;;1.80;0.67;;;20.20;1.00;;;;;;8342595;28;20281;-76
2022/05/12 17:52:56;;;;;;;1.70;0.60;;;20.40;1.00;;;;;;8324899;28;20219;-77
2022/05/12 17:56:57;;;;;;;1.50;0.40;;;20.40;1.00;;;;;;8331002;28;20204;-80
2022/05/12 18:00:59;;;;;;;3.10;0.70;;;20.10;1.00;;;;;;8326896;28;20194;-76
2022/05/12 18:04:59;;;;;;;1.80;0.60;;;20.00;1.00;;;;;;8323220;28;20201;-80
2022/05/12 18:09:01;;;;;;;2.03;0.80;;;19.70;1.00;;;;;;8324541;28;20221;-76
2022/05/12 18:13:03;;;;;;;1.80;0.60;;;19.50;1.00;;;;;;8318929;28;20217;-77
2022/05/12 18:17:06;;;;;;;1.63;0.90;;;19.20;1.00;;;;;;8336478;28;20181;-75
2022/05/12 18:21:07;;;;;;;2.50;0.60;;;19.00;1.00;;;;;;8327713;28;20197;-77
2022/05/12 18:25:09;;;;;;;0.73;0.50;;;18.60;1.00;;;;;;8329347;28;20269;-76
2022/05/12 18:29:10;;;;;;;1.27;0.70;;;18.20;1.00;;;;;;8335931;28;20206;-76
2022/05/12 18:33:11;;;;;;;2.50;0.70;;;17.80;1.00;;;;;;8326112;28;20190;-77
2022/05/12 18:37:12;;;;;;;1.57;0.70;;;17.50;1.00;;;;;;8335333;28;20219;-75
2022/05/12 18:41:13;;;;;;;1.30;0.60;;;17.30;1.00;;;;;;8334490;28;20297;-77
2022/05/12 18:45:15;;;;;;;1.57;0.53;;;17.00;1.00;;;;;;8339902;28;20221;-75
2022/05/12 18:49:16;;;;;;;1.30;0.70;;;16.70;1.00;;;;;;8344493;28;20193;-73
2022/05/12 18:53:17;;;;;;;1.63;0.70;;;16.40;1.00;;;;;;8308264;28;20213;-76
2022/05/12 18:57:18;;;;;;;1.30;0.63;;;16.10;1.20;;;;;;8344048;28;20188;-76
2022/05/12 19:01:19;;;;;;;1.03;0.53;;;15.80;37.90;;;;;;8347934;28;20197;-75
2022/05/12 19:05:22;;;;;;;1.90;1.20;;;15.50;74.90;;;;;;8348172;28;20197;-79
2022/05/12 19:09:24;;;;;;;3.07;1.00;;;15.40;99.90;;;;;;8332326;28;20194;-78
2022/05/12 19:13:25;;;;;;;1.97;1.60;;;15.20;99.90;;;;;;8325182;28;20234;-78
2022/05/12 19:17:30;;;;;;;1.37;1.17;;;15.10;99.90;;;;;;8336806;28;20217;-78
2022/05/12 19:21:31;;;;;;;1.10;0.70;;;15.00;99.90;;;;;;8337162;28;20194;-78
2022/05/12 19:25:32;;;;;;;1.50;0.70;;;14.80;99.90;;;;;;8327031;28;20212;-78
2022/05/12 19:29:33;;;;;;;0.90;0.50;;;14.70;99.90;;;;;;8330407;28;20206;-78
2022/05/12 19:33:35;;;;;;;1.23;0.63;;;14.50;99.90;;;;;;8328279;28;20183;-78
2022/05/12 19:37:39;;;;;;;1.30;0.73;;;14.40;99.90;;;;;;8336204;28;20211;-79
2022/05/12 19:41:40;;;;;;;1.17;0.70;;;14.20;99.90;;;;;;8336032;28;20206;-79
2022/05/12 19:45:45;;;;;;;1.37;0.60;;;14.10;99.90;;;;;;8335591;28;20284;-79
2022/05/12 19:49:46;;;;;;;0.83;0.60;;;14.10;99.90;;;;;;8324683;28;20209;-78
2022/05/12 19:53:47;;;;;;;1.60;0.67;;;14.00;99.90;;;;;;8344251;28;20190;-78
2022/05/12 19:57:48;;;;;;;0.57;0.40;;;13.90;99.90;;;;;;8333040;28;20292;-78
2022/05/12 20:01:49;;;;;;;0.77;0.60;;;13.90;99.90;;;;;;8329892;28;20240;-78
2022/05/12 20:05:51;;;;;;;1.67;0.57;;;13.80;99.90;;;;;;8323990;28;20225;-77
2022/05/12 20:09:52;;;;;;;1.00;0.57;;;13.70;99.90;;;;;;8328584;28;20288;-77
2022/05/12 20:13:53;;;;;;;0.77;0.50;;;13.60;99.90;;;;;;8322862;28;20233;-79
2022/05/12 20:17:53;;;;;;;0.77;0.63;;;13.50;99.90;;;;;;8326512;28;20196;-79
2022/05/12 20:21:58;;;;;;;2.13;0.70;;;13.50;1.00;;;;;;8329261;28;20239;-78
2022/05/12 20:26:01;;;;;;;0.93;0.60;;;13.40;1.00;;;;;;8332171;28;20236;-79
2022/05/12 20:30:04;;;;;;;2.03;0.80;;;13.40;1.00;;;;;;8325100;28;20213;-80
2022/05/12 20:34:06;;;;;;;1.17;0.70;;;13.40;1.00;;;;;;8329158;28;20266;-79
2022/05/12 20:38:08;;;;;;;2.03;0.80;;;13.40;99.90;;;;;;8326976;28;20174;-78
2022/05/12 20:42:09;;;;;;;0.73;0.60;;;13.40;1.00;;;;;;8327113;28;20206;-78
2022/05/12 20:46:11;;;;;;;1.27;0.70;;;13.40;1.00;;;;;;8330568;28;20229;-78
2022/05/12 20:50:13;;;;;;;0.63;0.53;;;13.40;1.00;;;;;;8329018;28;20363;-78
2022/05/12 20:54:14;;;;;;;0.80;0.80;;;13.40;1.00;;;;;;8333779;28;20181;-79
2022/05/12 20:58:21;;;;;;;2.27;0.60;;;13.40;1.00;;;;;;8330105;28;20185;-78
2022/05/12 21:02:22;;;;;;;0.70;0.70;;;13.40;1.00;;;;;;8324749;28;20189;-78
2022/05/12 21:06:25;;;;;;;0.60;0.57;;;13.40;1.00;;;;;;8342482;28;20208;-78
2022/05/12 21:10:26;;;;;;;0.80;0.60;;;13.40;1.00;;;;;;8325379;28;20268;-78
2022/05/12 21:14:27;;;;;;;0.80;0.60;;;13.40;1.00;;;;;;8330841;28;20269;-79
2022/05/12 21:18:29;;;;;;;0.80;0.63;;;13.30;1.00;;;;;;8325653;28;20235;-78
2022/05/12 21:22:30;;;;;;;1.53;0.97;;;13.30;1.00;;;;;;8315922;28;20190;-78
2022/05/12 21:26:30;;;;;;;2.40;0.57;;;13.30;1.00;;;;;;8326971;28;20198;-77
2022/05/12 21:30:33;;;;;;;0.97;0.70;;;13.20;1.00;;;;;;8328578;28;20214;-78
2022/05/12 21:34:34;;;;;;;1.27;0.77;;;13.20;1.00;;;;;;8320507;28;20185;-78
2022/05/12 21:38:35;;;;;;;2.87;0.87;;;13.20;57.20;;;;;;8336708;28;20229;-79
2022/05/12 21:42:36;;;;;;;0.93;0.70;;;13.20;99.90;;;;;;8340724;28;20186;-78
2022/05/12 21:46:37;;;;;;;0.97;0.67;;;13.10;99.90;;;;;;8322997;28;20212;-78
2022/05/12 21:50:38;;;;;;;0.73;0.60;;;13.10;99.90;;;;;;8319742;28;20206;-78